Terminal Aerodrome Forecast
Issued by NWS Shreveport, LA

Home | Current Version | Previous Version | Text Only | Print | Product List | Glossary On
Versions: 1 2 3 4 5 6 7 8 9 10 11 12 13 14 15 16 17
000
FTUS44 KSHV 251700
TAFMLU
TAF
KMLU 251730Z 2518/2618 VRB04KT P6SM SCT040 SCT250
     FM260300 VRB03KT P6SM SKC
     FM260600 19003KT P6SM SKC
     FM261100 21002KT 4SM BR SKC
     FM261400 22007KT P6SM SKC=

USA.gov is the U.S. government's official web portal to all federal, state and local government web resources and services.